sensor_id;sensor_type;location;lat;lon;timestamp;pressure;altitude;pressure_sealevel;temperature;humidity
73143;BME280;61343;53.694;9.988;2022-08-25T00:00:14;101838.34;;;19.80;80.25
73143;BME280;61343;53.694;9.988;2022-08-25T00:02:39;101830.09;;;19.75;80.48
73143;BME280;61343;53.694;9.988;2022-08-25T00:05:05;101833.06;;;19.74;80.60
73143;BME280;61343;53.694;9.988;2022-08-25T00:07:31;101827.63;;;19.74;80.32
73143;BME280;61343;53.694;9.988;2022-08-25T00:09:56;101825.66;;;19.69;80.35
73143;BME280;61343;53.694;9.988;2022-08-25T00:12:21;101824.66;;;19.75;80.33
73143;BME280;61343;53.694;9.988;2022-08-25T00:14:47;101835.53;;;19.75;80.44
73143;BME280;61343;53.694;9.988;2022-08-25T00:17:12;101829.47;;;19.68;80.88
73143;BME280;61343;53.694;9.988;2022-08-25T00:19:37;101821.81;;;19.65;80.96
73143;BME280;61343;53.694;9.988;2022-08-25T00:22:06;101829.94;;;19.65;80.91
73143;BME280;61343;53.694;9.988;2022-08-25T00:24:32;101825.59;;;19.64;81.22
73143;BME280;61343;53.694;9.988;2022-08-25T00:26:59;101823.84;;;19.58;81.12
73143;BME280;61343;53.694;9.988;2022-08-25T00:29:26;101826.06;;;19.61;81.21
73143;BME280;61343;53.694;9.988;2022-08-25T00:31:54;101827.66;;;19.57;81.35
73143;BME280;61343;53.694;9.988;2022-08-25T00:34:22;101825.44;;;19.54;81.17
73143;BME280;61343;53.694;9.988;2022-08-25T00:36:48;101829.78;;;19.55;81.12
73143;BME280;61343;53.694;9.988;2022-08-25T00:39:16;101825.66;;;19.53;81.09
73143;BME280;61343;53.694;9.988;2022-08-25T00:41:42;101824.84;;;19.52;81.10
73143;BME280;61343;53.694;9.988;2022-08-25T00:44:10;101830.13;;;19.42;81.58
73143;BME280;61343;53.694;9.988;2022-08-25T00:46:40;101826.31;;;19.43;81.73
73143;BME280;61343;53.694;9.988;2022-08-25T00:49:10;101828.72;;;19.39;81.77
73143;BME280;61343;53.694;9.988;2022-08-25T00:51:49;101824.81;;;19.35;81.93
73143;BME280;61343;53.694;9.988;2022-08-25T00:54:23;101827.75;;;19.34;82.19
73143;BME280;61343;53.694;9.988;2022-08-25T00:56:50;101826.69;;;19.35;81.92
73143;BME280;61343;53.694;9.988;2022-08-25T00:59:20;101827.09;;;19.27;82.16
73143;BME280;61343;53.694;9.988;2022-08-25T01:01:48;101822.66;;;19.21;82.78
73143;BME280;61343;53.694;9.988;2022-08-25T01:04:14;101831.97;;;19.25;82.58
73143;BME280;61343;53.694;9.988;2022-08-25T01:06:41;101836.56;;;19.24;82.63
73143;BME280;61343;53.694;9.988;2022-08-25T01:09:11;101836.78;;;19.23;82.82
73143;BME280;61343;53.694;9.988;2022-08-25T01:11:39;101829.56;;;19.28;82.64
73143;BME280;61343;53.694;9.988;2022-08-25T01:14:04;101840.66;;;19.27;82.50
73143;BME280;61343;53.694;9.988;2022-08-25T01:16:37;101827.50;;;19.19;82.64
73143;BME280;61343;53.694;9.988;2022-08-25T01:19:05;101827.81;;;19.22;82.49
73143;BME280;61343;53.694;9.988;2022-08-25T01:21:41;101828.78;;;19.16;82.98
73143;BME280;61343;53.694;9.988;2022-08-25T01:24:09;101823.38;;;19.16;82.81
73143;BME280;61343;53.694;9.988;2022-08-25T01:26:35;101830.38;;;19.12;82.98
73143;BME280;61343;53.694;9.988;2022-08-25T01:29:04;101824.13;;;19.12;83.09
73143;BME280;61343;53.694;9.988;2022-08-25T01:31:53;101835.44;;;19.09;83.13
73143;BME280;61343;53.694;9.988;2022-08-25T01:34:21;101827.88;;;19.11;83.05
73143;BME280;61343;53.694;9.988;2022-08-25T01:36:47;101828.84;;;19.05;83.08
73143;BME280;61343;53.694;9.988;2022-08-25T01:39:13;101824.41;;;18.99;83.63
73143;BME280;61343;53.694;9.988;2022-08-25T01:44:12;101829.16;;;18.91;83.91
73143;BME280;61343;53.694;9.988;2022-08-25T01:46:38;101835.56;;;18.85;84.03
73143;BME280;61343;53.694;9.988;2022-08-25T01:49:03;101835.16;;;18.93;84.28
73143;BME280;61343;53.694;9.988;2022-08-25T01:51:33;101831.06;;;18.91;84.17
73143;BME280;61343;53.694;9.988;2022-08-25T01:53:58;101836.22;;;18.92;83.70
73143;BME280;61343;53.694;9.988;2022-08-25T01:56:24;101831.28;;;18.89;84.21
73143;BME280;61343;53.694;9.988;2022-08-25T01:58:49;101833.75;;;18.91;84.23
73143;BME280;61343;53.694;9.988;2022-08-25T02:01:18;101837.78;;;18.88;84.09
73143;BME280;61343;53.694;9.988;2022-08-25T02:03:46;101829.66;;;18.88;83.87
73143;BME280;61343;53.694;9.988;2022-08-25T02:06:18;101838.91;;;18.92;83.63
73143;BME280;61343;53.694;9.988;2022-08-25T02:08:44;101834.38;;;18.81;84.23
73143;BME280;61343;53.694;9.988;2022-08-25T02:11:12;101847.84;;;18.76;84.47
73143;BME280;61343;53.694;9.988;2022-08-25T02:13:39;101843.59;;;18.80;84.33
73143;BME280;61343;53.694;9.988;2022-08-25T02:16:06;101850.47;;;18.71;84.83
73143;BME280;61343;53.694;9.988;2022-08-25T02:18:32;101845.25;;;18.70;84.62
73143;BME280;61343;53.694;9.988;2022-08-25T02:20:57;101846.66;;;18.72;84.64
73143;BME280;61343;53.694;9.988;2022-08-25T02:23:23;101854.69;;;18.67;84.97
73143;BME280;61343;53.694;9.988;2022-08-25T02:25:48;101851.88;;;18.62;85.02
73143;BME280;61343;53.694;9.988;2022-08-25T02:28:13;101846.94;;;18.59;85.27
73143;BME280;61343;53.694;9.988;2022-08-25T02:30:40;101850.22;;;18.61;84.83
73143;BME280;61343;53.694;9.988;2022-08-25T02:33:07;101846.47;;;18.62;85.05
73143;BME280;61343;53.694;9.988;2022-08-25T02:35:33;101843.63;;;18.57;85.05
73143;BME280;61343;53.694;9.988;2022-08-25T02:37:58;101838.13;;;18.52;85.42
73143;BME280;61343;53.694;9.988;2022-08-25T02:40:23;101833.19;;;18.49;85.30
73143;BME280;61343;53.694;9.988;2022-08-25T02:42:50;101832.00;;;18.45;85.87
73143;BME280;61343;53.694;9.988;2022-08-25T02:45:16;101836.59;;;18.45;86.15
73143;BME280;61343;53.694;9.988;2022-08-25T02:47:43;101842.22;;;18.43;85.80
73143;BME280;61343;53.694;9.988;2022-08-25T02:50:09;101837.63;;;18.44;85.90
73143;BME280;61343;53.694;9.988;2022-08-25T02:52:35;101833.53;;;18.41;85.96
73143;BME280;61343;53.694;9.988;2022-08-25T02:55:03;101828.00;;;18.36;86.24
73143;BME280;61343;53.694;9.988;2022-08-25T02:57:30;101834.13;;;18.31;86.64
73143;BME280;61343;53.694;9.988;2022-08-25T02:59:56;101825.19;;;18.31;86.74
73143;BME280;61343;53.694;9.988;2022-08-25T03:02:22;101825.78;;;18.33;86.42
73143;BME280;61343;53.694;9.988;2022-08-25T03:04:48;101828.03;;;18.24;87.03
73143;BME280;61343;53.694;9.988;2022-08-25T03:07:14;101813.41;;;18.25;86.49
73143;BME280;61343;53.694;9.988;2022-08-25T03:09:39;101826.72;;;18.27;86.40
73143;BME280;61343;53.694;9.988;2022-08-25T03:12:05;101818.59;;;18.27;86.38
73143;BME280;61343;53.694;9.988;2022-08-25T03:14:30;101820.84;;;18.30;86.54
73143;BME280;61343;53.694;9.988;2022-08-25T03:16:55;101826.56;;;18.33;86.09
73143;BME280;61343;53.694;9.988;2022-08-25T03:19:21;101824.13;;;18.32;86.14
73143;BME280;61343;53.694;9.988;2022-08-25T03:21:46;101827.66;;;18.32;86.17
73143;BME280;61343;53.694;9.988;2022-08-25T03:24:12;101833.28;;;18.31;86.15
73143;BME280;61343;53.694;9.988;2022-08-25T03:26:38;101822.72;;;18.29;86.15
73143;BME280;61343;53.694;9.988;2022-08-25T03:29:22;101824.72;;;18.22;86.42
73143;BME280;61343;53.694;9.988;2022-08-25T03:31:49;101812.25;;;18.21;86.74
73143;BME280;61343;53.694;9.988;2022-08-25T03:34:17;101813.06;;;18.22;86.81
73143;BME280;61343;53.694;9.988;2022-08-25T03:36:45;101818.16;;;18.18;86.57
73143;BME280;61343;53.694;9.988;2022-08-25T03:39:10;101823.31;;;18.20;86.62
73143;BME280;61343;53.694;9.988;2022-08-25T03:41:36;101819.56;;;18.21;86.72
73143;BME280;61343;53.694;9.988;2022-08-25T03:44:02;101820.59;;;18.20;86.73
73143;BME280;61343;53.694;9.988;2022-08-25T03:46:35;101815.66;;;18.17;86.91
73143;BME280;61343;53.694;9.988;2022-08-25T03:49:03;101812.47;;;18.20;86.42
73143;BME280;61343;53.694;9.988;2022-08-25T03:51:34;101812.97;;;18.17;87.02
73143;BME280;61343;53.694;9.988;2022-08-25T03:54:00;101811.31;;;18.16;86.63
73143;BME280;61343;53.694;9.988;2022-08-25T03:56:26;101806.63;;;18.11;87.04
73143;BME280;61343;53.694;9.988;2022-08-25T03:58:52;101804.13;;;18.10;86.70
73143;BME280;61343;53.694;9.988;2022-08-25T04:01:18;101809.53;;;18.10;86.88
73143;BME280;61343;53.694;9.988;2022-08-25T04:03:43;101819.78;;;18.08;86.67
73143;BME280;61343;53.694;9.988;2022-08-25T04:06:09;101817.09;;;18.08;87.24
73143;BME280;61343;53.694;9.988;2022-08-25T04:08:35;101817.44;;;18.11;86.68
73143;BME280;61343;53.694;9.988;2022-08-25T04:11:06;101810.53;;;18.04;86.81
73143;BME280;61343;53.694;9.988;2022-08-25T04:13:31;101809.22;;;18.06;86.75
73143;BME280;61343;53.694;9.988;2022-08-25T04:15:57;101804.28;;;18.03;86.50
73143;BME280;61343;53.694;9.988;2022-08-25T04:18:22;101810.53;;;18.04;87.25
73143;BME280;61343;53.694;9.988;2022-08-25T04:20:47;101806.16;;;18.03;86.32
73143;BME280;61343;53.694;9.988;2022-08-25T04:23:12;101809.56;;;17.98;86.72
73143;BME280;61343;53.694;9.988;2022-08-25T04:25:41;101810.16;;;17.89;87.46
73143;BME280;61343;53.694;9.988;2022-08-25T04:28:08;101811.31;;;17.93;87.01
73143;BME280;61343;53.694;9.988;2022-08-25T04:30:33;101805.81;;;17.88;86.83
73143;BME280;61343;53.694;9.988;2022-08-25T04:32:59;101809.81;;;17.85;87.36
73143;BME280;61343;53.694;9.988;2022-08-25T04:35:24;101813.81;;;17.82;87.68
73143;BME280;61343;53.694;9.988;2022-08-25T04:37:50;101813.66;;;17.77;87.93
73143;BME280;61343;53.694;9.988;2022-08-25T04:40:15;101821.31;;;17.80;87.84
73143;BME280;61343;53.694;9.988;2022-08-25T04:42:40;101828.88;;;17.78;88.38
73143;BME280;61343;53.694;9.988;2022-08-25T04:45:06;101821.31;;;17.80;87.91
73143;BME280;61343;53.694;9.988;2022-08-25T04:47:38;101819.34;;;17.88;87.71
73143;BME280;61343;53.694;9.988;2022-08-25T04:50:05;101823.69;;;17.89;87.59
73143;BME280;61343;53.694;9.988;2022-08-25T04:52:30;101832.88;;;17.88;87.63
73143;BME280;61343;53.694;9.988;2022-08-25T04:54:56;101832.16;;;17.92;87.31
73143;BME280;61343;53.694;9.988;2022-08-25T04:57:21;101830.88;;;17.95;87.19
73143;BME280;61343;53.694;9.988;2022-08-25T04:59:46;101829.44;;;17.92;87.48
73143;BME280;61343;53.694;9.988;2022-08-25T05:02:12;101833.91;;;17.87;87.87
73143;BME280;61343;53.694;9.988;2022-08-25T05:04:37;101838.63;;;17.91;87.80
73143;BME280;61343;53.694;9.988;2022-08-25T05:07:03;101831.81;;;17.89;87.87
73143;BME280;61343;53.694;9.988;2022-08-25T05:09:28;101825.78;;;17.87;88.27
73143;BME280;61343;53.694;9.988;2022-08-25T05:11:54;101827.09;;;17.72;89.48
73143;BME280;61343;53.694;9.988;2022-08-25T05:14:20;101816.84;;;17.74;89.19
73143;BME280;61343;53.694;9.988;2022-08-25T05:16:47;101817.44;;;17.65;90.24
73143;BME280;61343;53.694;9.988;2022-08-25T05:19:12;101819.53;;;17.63;89.93
73143;BME280;61343;53.694;9.988;2022-08-25T05:21:38;101816.63;;;17.64;89.78
73143;BME280;61343;53.694;9.988;2022-08-25T05:24:03;101811.56;;;17.68;89.87
73143;BME280;61343;53.694;9.988;2022-08-25T05:26:30;101803.69;;;17.66;89.96
73143;BME280;61343;53.694;9.988;2022-08-25T05:28:57;101807.56;;;17.59;90.57
73143;BME280;61343;53.694;9.988;2022-08-25T05:31:24;101803.69;;;17.66;89.86
73143;BME280;61343;53.694;9.988;2022-08-25T05:33:50;101801.78;;;17.55;90.65
73143;BME280;61343;53.694;9.988;2022-08-25T05:36:17;101803.16;;;17.46;91.53
73143;BME280;61343;53.694;9.988;2022-08-25T05:38:43;101798.22;;;17.43;91.58
73143;BME280;61343;53.694;9.988;2022-08-25T05:41:12;101796.25;;;17.50;91.86
73143;BME280;61343;53.694;9.988;2022-08-25T05:43:41;101805.16;;;17.51;91.90
73143;BME280;61343;53.694;9.988;2022-08-25T05:46:08;101805.16;;;17.51;92.31
73143;BME280;61343;53.694;9.988;2022-08-25T05:48:33;101804.34;;;17.50;92.09
73143;BME280;61343;53.694;9.988;2022-08-25T05:51:01;101804.16;;;17.63;91.81
73143;BME280;61343;53.694;9.988;2022-08-25T05:53:28;101811.09;;;17.71;92.02
73143;BME280;61343;53.694;9.988;2022-08-25T05:55:55;101811.31;;;17.69;92.40
73143;BME280;61343;53.694;9.988;2022-08-25T05:58:22;101811.31;;;17.81;91.56
73143;BME280;61343;53.694;9.988;2022-08-25T06:00:49;101808.50;;;17.88;91.50
73143;BME280;61343;53.694;9.988;2022-08-25T06:03:14;101813.56;;;17.96;91.53
73143;BME280;61343;53.694;9.988;2022-08-25T06:05:40;101814.75;;;18.00;91.38
73143;BME280;61343;53.694;9.988;2022-08-25T06:08:05;101801.78;;;18.02;91.68
73143;BME280;61343;53.694;9.988;2022-08-25T06:10:31;101804.03;;;18.05;91.48
73143;BME280;61343;53.694;9.988;2022-08-25T06:12:56;101804.38;;;18.08;91.20
73143;BME280;61343;53.694;9.988;2022-08-25T06:15:23;101801.19;;;18.11;91.62
73143;BME280;61343;53.694;9.988;2022-08-25T06:17:49;101801.19;;;18.23;91.06
73143;BME280;61343;53.694;9.988;2022-08-25T06:20:18;101801.19;;;18.23;91.26
73143;BME280;61343;53.694;9.988;2022-08-25T06:22:44;101799.31;;;18.23;91.63
73143;BME280;61343;53.694;9.988;2022-08-25T06:25:12;101800.59;;;18.21;91.73
73143;BME280;61343;53.694;9.988;2022-08-25T06:27:38;101804.25;;;18.26;91.48
73143;BME280;61343;53.694;9.988;2022-08-25T06:30:08;101801.88;;;18.30;91.69
73143;BME280;61343;53.694;9.988;2022-08-25T06:32:35;101797.88;;;18.32;91.49
73143;BME280;61343;53.694;9.988;2022-08-25T06:35:03;101799.38;;;18.40;91.29
73143;BME280;61343;53.694;9.988;2022-08-25T06:37:29;101799.38;;;18.40;91.65
73143;BME280;61343;53.694;9.988;2022-08-25T06:39:54;101798.22;;;18.36;92.17
73143;BME280;61343;53.694;9.988;2022-08-25T06:42:20;101793.38;;;18.38;91.90
73143;BME280;61343;53.694;9.988;2022-08-25T06:44:45;101805.88;;;18.39;91.80
73143;BME280;61343;53.694;9.988;2022-08-25T06:47:11;101798.22;;;18.36;92.04
73143;BME280;61343;53.694;9.988;2022-08-25T06:49:36;101799.28;;;18.35;92.08
73143;BME280;61343;53.694;9.988;2022-08-25T06:52:02;101802.56;;;18.37;91.67
73143;BME280;61343;53.694;9.988;2022-08-25T06:54:28;101798.00;;;18.26;91.94
73143;BME280;61343;53.694;9.988;2022-08-25T06:56:53;101800.22;;;18.29;92.19
73143;BME280;61343;53.694;9.988;2022-08-25T06:59:18;101799.50;;;18.33;91.75
73143;BME280;61343;53.694;9.988;2022-08-25T07:01:44;101804.69;;;18.35;91.90
73143;BME280;61343;53.694;9.988;2022-08-25T07:04:09;101806.91;;;18.38;91.78
73143;BME280;61343;53.694;9.988;2022-08-25T07:06:35;101814.56;;;18.41;91.67
73143;BME280;61343;53.694;9.988;2022-08-25T07:09:05;101824.09;;;18.44;91.51
73143;BME280;61343;53.694;9.988;2022-08-25T07:11:31;101819.63;;;18.49;91.38
73143;BME280;61343;53.694;9.988;2022-08-25T07:14:03;101824.56;;;18.52;91.68
73143;BME280;61343;53.694;9.988;2022-08-25T07:16:29;101830.69;;;18.59;90.66
73143;BME280;61343;53.694;9.988;2022-08-25T07:18:55;101827.13;;;18.70;90.65
73143;BME280;61343;53.694;9.988;2022-08-25T07:21:22;101828.91;;;18.65;90.45
73143;BME280;61343;53.694;9.988;2022-08-25T07:23:48;101829.03;;;18.58;90.98
73143;BME280;61343;53.694;9.988;2022-08-25T07:26:16;101819.59;;;18.61;90.71
73143;BME280;61343;53.694;9.988;2022-08-25T07:28:43;101821.00;;;18.63;90.35
73143;BME280;61343;53.694;9.988;2022-08-25T07:31:08;101831.47;;;18.71;90.32
73143;BME280;61343;53.694;9.988;2022-08-25T07:33:34;101822.41;;;18.77;89.82
73143;BME280;61343;53.694;9.988;2022-08-25T07:36:00;101821.22;;;18.73;90.45
73143;BME280;61343;53.694;9.988;2022-08-25T07:38:25;101827.91;;;18.82;89.93
73143;BME280;61343;53.694;9.988;2022-08-25T07:40:50;101817.69;;;18.73;89.78
73143;BME280;61343;53.694;9.988;2022-08-25T07:43:20;101816.66;;;18.62;90.66
73143;BME280;61343;53.694;9.988;2022-08-25T07:45:47;101818.41;;;18.68;90.39
73143;BME280;61343;53.694;9.988;2022-08-25T07:48:13;101820.75;;;18.76;89.83
73143;BME280;61343;53.694;9.988;2022-08-25T07:50:41;101820.16;;;18.74;89.58
73143;BME280;61343;53.694;9.988;2022-08-25T07:53:08;101821.34;;;18.67;90.08
73143;BME280;61343;53.694;9.988;2022-08-25T07:55:34;101812.78;;;18.58;90.66
73143;BME280;61343;53.694;9.988;2022-08-25T07:58:06;101816.75;;;18.67;90.10
73143;BME280;61343;53.694;9.988;2022-08-25T08:00:33;101809.59;;;18.61;90.32
73143;BME280;61343;53.694;9.988;2022-08-25T08:03:02;101813.56;;;18.70;90.11
73143;BME280;61343;53.694;9.988;2022-08-25T08:05:28;101816.16;;;18.77;89.59
73143;BME280;61343;53.694;9.988;2022-08-25T08:07:54;101812.50;;;18.71;90.02
73143;BME280;61343;53.694;9.988;2022-08-25T08:10:20;101810.78;;;18.65;90.63
73143;BME280;61343;53.694;9.988;2022-08-25T08:12:47;101812.16;;;18.68;90.29
73143;BME280;61343;53.694;9.988;2022-08-25T08:15:12;101808.72;;;18.72;90.37
73143;BME280;61343;53.694;9.988;2022-08-25T08:17:39;101809.75;;;18.83;89.38
73143;BME280;61343;53.694;9.988;2022-08-25T08:20:05;101809.50;;;18.84;89.88
73143;BME280;61343;53.694;9.988;2022-08-25T08:22:34;101815.91;;;19.07;88.79
73143;BME280;61343;53.694;9.988;2022-08-25T08:25:00;101821.88;;;19.09;88.76
73143;BME280;61343;53.694;9.988;2022-08-25T08:27:25;101813.84;;;19.14;88.24
73143;BME280;61343;53.694;9.988;2022-08-25T08:29:50;101815.56;;;19.03;88.72
73143;BME280;61343;53.694;9.988;2022-08-25T08:32:17;101817.22;;;19.21;87.95
73143;BME280;61343;53.694;9.988;2022-08-25T08:34:43;101814.59;;;19.26;87.07
73143;BME280;61343;53.694;9.988;2022-08-25T08:37:08;101812.03;;;19.19;87.02
73143;BME280;61343;53.694;9.988;2022-08-25T08:39:35;101814.09;;;19.29;86.93
73143;BME280;61343;53.694;9.988;2022-08-25T08:50:27;101814.16;;;19.62;85.33
73143;BME280;61343;53.694;9.988;2022-08-25T08:53:03;101822.88;;;19.64;85.46
73143;BME280;61343;53.694;9.988;2022-08-25T08:55:34;101812.84;;;19.48;85.96
73143;BME280;61343;53.694;9.988;2022-08-25T08:58:05;101815.47;;;19.43;86.00
73143;BME280;61343;53.694;9.988;2022-08-25T09:00:38;101820.69;;;19.33;86.24
73143;BME280;61343;53.694;9.988;2022-08-25T09:03:11;101807.09;;;19.44;85.84
73143;BME280;61343;53.694;9.988;2022-08-25T09:05:49;101806.44;;;19.54;85.41
73143;BME280;61343;53.694;9.988;2022-08-25T09:08:17;101799.53;;;19.63;85.39
73143;BME280;61343;53.694;9.988;2022-08-25T09:16:32;101789.03;;;19.88;83.46
73143;BME280;61343;53.694;9.988;2022-08-25T09:22:30;101790.03;;;20.21;82.86
73143;BME280;61343;53.694;9.988;2022-08-25T09:25:27;101791.16;;;20.41;81.44
73143;BME280;61343;53.694;9.988;2022-08-25T09:28:07;101793.13;;;20.46;80.78
73143;BME280;61343;53.694;9.988;2022-08-25T09:30:46;101794.19;;;20.67;80.39
73143;BME280;61343;53.694;9.988;2022-08-25T09:33:21;101791.22;;;20.73;80.12
73143;BME280;61343;53.694;9.988;2022-08-25T09:35:48;101789.38;;;21.05;79.42
73143;BME280;61343;53.694;9.988;2022-08-25T09:38:14;101786.13;;;21.03;78.67
73143;BME280;61343;53.694;9.988;2022-08-25T09:40:46;101788.91;;;21.08;77.86
73143;BME280;61343;53.694;9.988;2022-08-25T09:43:21;101781.56;;;21.41;77.26
73143;BME280;61343;53.694;9.988;2022-08-25T09:45:56;101783.16;;;21.68;76.59
73143;BME280;61343;53.694;9.988;2022-08-25T09:48:26;101783.56;;;21.87;75.20
73143;BME280;61343;53.694;9.988;2022-08-25T09:50:57;101772.72;;;21.97;74.47
73143;BME280;61343;53.694;9.988;2022-08-25T09:53:24;101776.09;;;22.14;74.41
73143;BME280;61343;53.694;9.988;2022-08-25T09:55:55;101757.06;;;22.30;73.60
73143;BME280;61343;53.694;9.988;2022-08-25T09:58:23;101757.19;;;22.60;72.56
73143;BME280;61343;53.694;9.988;2022-08-25T10:01:01;101747.13;;;22.70;71.91
73143;BME280;61343;53.694;9.988;2022-08-25T10:03:27;101736.53;;;22.84;71.39
73143;BME280;61343;53.694;9.988;2022-08-25T10:06:00;101731.13;;;23.14;70.53
73143;BME280;61343;53.694;9.988;2022-08-25T10:08:31;101724.00;;;23.39;69.53
73143;BME280;61343;53.694;9.988;2022-08-25T10:10:59;101729.47;;;23.59;68.62
73143;BME280;61343;53.694;9.988;2022-08-25T10:13:44;101715.19;;;23.77;67.51
73143;BME280;61343;53.694;9.988;2022-08-25T10:16:26;101711.88;;;23.95;67.05
73143;BME280;61343;53.694;9.988;2022-08-25T10:19:05;101722.22;;;23.98;67.22
73143;BME280;61343;53.694;9.988;2022-08-25T10:21:32;101721.22;;;23.79;67.67
73143;BME280;61343;53.694;9.988;2022-08-25T10:23:58;101712.50;;;23.72;67.70
73143;BME280;61343;53.694;9.988;2022-08-25T10:26:54;101709.72;;;23.77;67.65
73143;BME280;61343;53.694;9.988;2022-08-25T10:29:33;101711.03;;;24.00;67.02
73143;BME280;61343;53.694;9.988;2022-08-25T10:32:09;101714.47;;;24.30;65.66
73143;BME280;61343;53.694;9.988;2022-08-25T10:39:39;101708.34;;;24.92;63.51
73143;BME280;61343;53.694;9.988;2022-08-25T10:42:17;101704.78;;;24.92;63.10
73143;BME280;61343;53.694;9.988;2022-08-25T10:56:17;101682.00;;;24.63;63.43
73143;BME280;61343;53.694;9.988;2022-08-25T11:01:54;101676.94;;;24.85;62.40
73143;BME280;61343;53.694;9.988;2022-08-25T11:04:47;101668.25;;;24.73;62.14
73143;BME280;61343;53.694;9.988;2022-08-25T11:07:27;101652.22;;;24.95;61.77
73143;BME280;61343;53.694;9.988;2022-08-25T11:09:57;101651.63;;;25.03;61.07
73143;BME280;61343;53.694;9.988;2022-08-25T11:12:33;101651.47;;;25.18;60.10
73143;BME280;61343;53.694;9.988;2022-08-25T11:15:20;101650.16;;;25.39;59.54
73143;BME280;61343;53.694;9.988;2022-08-25T11:17:53;101649.00;;;25.69;59.28
73143;BME280;61343;53.694;9.988;2022-08-25T11:20:23;101642.88;;;26.01;58.00
73143;BME280;61343;53.694;9.988;2022-08-25T11:25:30;101636.41;;;26.16;56.81
73143;BME280;61343;53.694;9.988;2022-08-25T11:28:10;101638.69;;;25.85;57.87
73143;BME280;61343;53.694;9.988;2022-08-25T11:30:37;101644.34;;;25.70;58.44
73143;BME280;61343;53.694;9.988;2022-08-25T11:33:04;101633.88;;;25.77;57.08
73143;BME280;61343;53.694;9.988;2022-08-25T11:38:26;101621.19;;;26.23;56.58
73143;BME280;61343;53.694;9.988;2022-08-25T11:46:35;101626.75;;;26.18;56.32
73143;BME280;61343;53.694;9.988;2022-08-25T11:51:56;101617.53;;;26.09;55.76
73143;BME280;61343;53.694;9.988;2022-08-25T11:54:43;101611.63;;;26.39;54.35
73143;BME280;61343;53.694;9.988;2022-08-25T12:02:34;101596.31;;;27.30;51.02
73143;BME280;61343;53.694;9.988;2022-08-25T12:10:15;101592.66;;;27.76;50.50
73143;BME280;61343;53.694;9.988;2022-08-25T12:18:19;101573.34;;;27.53;49.35
73143;BME280;61343;53.694;9.988;2022-08-25T12:26:14;101561.34;;;28.12;49.19
73143;BME280;61343;53.694;9.988;2022-08-25T12:28:52;101568.03;;;28.20;48.64
73143;BME280;61343;53.694;9.988;2022-08-25T12:31:49;101574.94;;;28.31;47.94
73143;BME280;61343;53.694;9.988;2022-08-25T12:37:21;101568.75;;;27.49;50.22
73143;BME280;61343;53.694;9.988;2022-08-25T12:42:35;101567.03;;;27.12;50.69
73143;BME280;61343;53.694;9.988;2022-08-25T12:45:31;101552.28;;;27.22;50.25
73143;BME280;61343;53.694;9.988;2022-08-25T12:51:09;101556.75;;;27.04;50.31
73143;BME280;61343;53.694;9.988;2022-08-25T12:56:27;101546.78;;;26.94;50.74
73143;BME280;61343;53.694;9.988;2022-08-25T12:59:00;101535.78;;;27.08;49.66
73143;BME280;61343;53.694;9.988;2022-08-25T13:06:54;101540.50;;;27.48;48.46
73143;BME280;61343;53.694;9.988;2022-08-25T13:10:07;101536.00;;;27.11;47.82
73143;BME280;61343;53.694;9.988;2022-08-25T13:12:48;101526.75;;;27.21;47.41
73143;BME280;61343;53.694;9.988;2022-08-25T13:15:32;101534.16;;;27.34;48.23
73143;BME280;61343;53.694;9.988;2022-08-25T13:20:48;101527.03;;;27.33;47.91
73143;BME280;61343;53.694;9.988;2022-08-25T13:23:24;101516.78;;;26.98;49.79
73143;BME280;61343;53.694;9.988;2022-08-25T13:25:51;101513.72;;;26.86;50.44
73143;BME280;61343;53.694;9.988;2022-08-25T13:28:23;101507.00;;;26.92;49.80
73143;BME280;61343;53.694;9.988;2022-08-25T13:30:56;101503.13;;;26.93;48.89
73143;BME280;61343;53.694;9.988;2022-08-25T13:33:22;101489.91;;;27.08;48.84
73143;BME280;61343;53.694;9.988;2022-08-25T13:35:50;101495.00;;;27.15;48.98
73143;BME280;61343;53.694;9.988;2022-08-25T13:38:39;101492.38;;;27.10;48.92
73143;BME280;61343;53.694;9.988;2022-08-25T13:41:07;101488.19;;;26.99;48.88
73143;BME280;61343;53.694;9.988;2022-08-25T13:43:34;101489.44;;;27.06;49.25
73143;BME280;61343;53.694;9.988;2022-08-25T13:45:59;101481.41;;;27.10;49.02
73143;BME280;61343;53.694;9.988;2022-08-25T13:48:39;101475.28;;;27.13;48.77
73143;BME280;61343;53.694;9.988;2022-08-25T13:53:48;101471.22;;;27.24;48.80
73143;BME280;61343;53.694;9.988;2022-08-25T13:56:23;101473.22;;;27.46;47.57
73143;BME280;61343;53.694;9.988;2022-08-25T13:58:49;101474.13;;;27.41;48.68
73143;BME280;61343;53.694;9.988;2022-08-25T14:01:25;101467.84;;;27.27;48.78
73143;BME280;61343;53.694;9.988;2022-08-25T14:03:53;101474.16;;;27.14;48.46
73143;BME280;61343;53.694;9.988;2022-08-25T14:06:25;101471.94;;;27.02;48.92
73143;BME280;61343;53.694;9.988;2022-08-25T14:14:11;101460.34;;;27.19;48.64
73143;BME280;61343;53.694;9.988;2022-08-25T14:16:48;101455.72;;;27.28;48.29
73143;BME280;61343;53.694;9.988;2022-08-25T14:19:17;101456.13;;;27.35;48.24
73143;BME280;61343;53.694;9.988;2022-08-25T14:21:43;101460.38;;;27.41;48.17
73143;BME280;61343;53.694;9.988;2022-08-25T14:24:14;101449.22;;;27.51;47.88
73143;BME280;61343;53.694;9.988;2022-08-25T14:26:40;101450.81;;;27.52;47.61
73143;BME280;61343;53.694;9.988;2022-08-25T14:29:05;101450.31;;;27.50;47.37
73143;BME280;61343;53.694;9.988;2022-08-25T14:31:33;101446.47;;;27.51;47.25
73143;BME280;61343;53.694;9.988;2022-08-25T14:34:06;101444.72;;;27.28;46.79
73143;BME280;61343;53.694;9.988;2022-08-25T14:36:33;101444.22;;;27.53;46.80
73143;BME280;61343;53.694;9.988;2022-08-25T14:38:59;101434.31;;;27.66;46.68
73143;BME280;61343;53.694;9.988;2022-08-25T14:41:30;101437.34;;;27.64;46.50